sensor_id;sensor_type;location;lat;lon;timestamp;P1;durP1;ratioP1;P2;durP2;ratioP2
14369;SDS011;7268;50.792;0.252;2023-04-24T00:01:35;3.65;;;3.00;;
14369;SDS011;7268;50.792;0.252;2023-04-24T00:04:03;5.30;;;3.38;;
14369;SDS011;7268;50.792;0.252;2023-04-24T00:06:30;3.83;;;2.13;;
14369;SDS011;7268;50.792;0.252;2023-04-24T00:09:00;2.60;;;1.55;;
14369;SDS011;7268;50.792;0.252;2023-04-24T00:11:28;3.33;;;1.85;;
14369;SDS011;7268;50.792;0.252;2023-04-24T00:13:56;3.05;;;1.80;;
14369;SDS011;7268;50.792;0.252;2023-04-24T00:16:24;4.40;;;1.50;;
14369;SDS011;7268;50.792;0.252;2023-04-24T00:18:51;2.20;;;1.13;;
14369;SDS011;7268;50.792;0.252;2023-04-24T00:21:22;3.10;;;1.52;;
14369;SDS011;7268;50.792;0.252;2023-04-24T00:23:52;3.90;;;2.67;;
14369;SDS011;7268;50.792;0.252;2023-04-24T00:26:19;2.05;;;1.20;;
14369;SDS011;7268;50.792;0.252;2023-04-24T00:28:46;3.00;;;1.23;;
14369;SDS011;7268;50.792;0.252;2023-04-24T00:31:14;2.92;;;2.63;;
14369;SDS011;7268;50.792;0.252;2023-04-24T00:33:41;4.68;;;3.00;;
14369;SDS011;7268;50.792;0.252;2023-04-24T00:36:08;4.72;;;1.92;;
14369;SDS011;7268;50.792;0.252;2023-04-24T00:38:35;3.22;;;1.98;;
14369;SDS011;7268;50.792;0.252;2023-04-24T00:41:03;2.70;;;1.55;;
14369;SDS011;7268;50.792;0.252;2023-04-24T00:43:31;1.50;;;1.45;;
14369;SDS011;7268;50.792;0.252;2023-04-24T00:45:58;2.85;;;1.85;;
14369;SDS011;7268;50.792;0.252;2023-04-24T00:48:28;3.55;;;1.70;;
14369;SDS011;7268;50.792;0.252;2023-04-24T00:50:55;3.78;;;2.85;;
14369;SDS011;7268;50.792;0.252;2023-04-24T00:53:23;6.28;;;2.60;;
14369;SDS011;7268;50.792;0.252;2023-04-24T00:55:51;5.15;;;1.35;;
14369;SDS011;7268;50.792;0.252;2023-04-24T00:58:18;3.85;;;1.95;;
14369;SDS011;7268;50.792;0.252;2023-04-24T01:00:45;2.92;;;2.53;;
14369;SDS011;7268;50.792;0.252;2023-04-24T01:03:13;4.18;;;2.50;;
14369;SDS011;7268;50.792;0.252;2023-04-24T01:05:41;3.00;;;2.15;;
14369;SDS011;7268;50.792;0.252;2023-04-24T01:08:08;15.65;;;2.15;;
14369;SDS011;7268;50.792;0.252;2023-04-24T01:10:36;3.40;;;1.50;;
14369;SDS011;7268;50.792;0.252;2023-04-24T01:13:03;4.28;;;2.55;;
14369;SDS011;7268;50.792;0.252;2023-04-24T01:15:31;4.82;;;2.58;;
14369;SDS011;7268;50.792;0.252;2023-04-24T01:17:58;4.55;;;2.05;;
14369;SDS011;7268;50.792;0.252;2023-04-24T01:20:25;0.70;;;0.65;;
14369;SDS011;7268;50.792;0.252;2023-04-24T01:22:54;1.90;;;1.52;;
14369;SDS011;7268;50.792;0.252;2023-04-24T01:25:23;4.22;;;2.70;;
14369;SDS011;7268;50.792;0.252;2023-04-24T01:27:51;4.65;;;3.05;;
14369;SDS011;7268;50.792;0.252;2023-04-24T01:30:19;2.90;;;1.80;;
14369;SDS011;7268;50.792;0.252;2023-04-24T01:32:46;4.18;;;2.78;;
14369;SDS011;7268;50.792;0.252;2023-04-24T01:35:14;2.45;;;1.50;;
14369;SDS011;7268;50.792;0.252;2023-04-24T01:37:41;4.38;;;3.15;;
14369;SDS011;7268;50.792;0.252;2023-04-24T01:40:09;1.15;;;0.82;;
14369;SDS011;7268;50.792;0.252;2023-04-24T01:42:36;4.40;;;1.77;;
14369;SDS011;7268;50.792;0.252;2023-04-24T01:45:04;3.20;;;2.33;;
14369;SDS011;7268;50.792;0.252;2023-04-24T01:47:32;2.10;;;1.77;;
14369;SDS011;7268;50.792;0.252;2023-04-24T01:49:59;1.92;;;1.50;;
14369;SDS011;7268;50.792;0.252;2023-04-24T01:52:26;3.92;;;1.95;;
14369;SDS011;7268;50.792;0.252;2023-04-24T01:54:55;3.78;;;2.55;;
14369;SDS011;7268;50.792;0.252;2023-04-24T01:57:22;2.53;;;1.48;;
14369;SDS011;7268;50.792;0.252;2023-04-24T01:59:50;1.85;;;1.52;;
14369;SDS011;7268;50.792;0.252;2023-04-24T02:02:17;1.90;;;0.80;;
14369;SDS011;7268;50.792;0.252;2023-04-24T02:04:47;5.00;;;2.95;;
14369;SDS011;7268;50.792;0.252;2023-04-24T02:07:14;3.67;;;1.90;;
14369;SDS011;7268;50.792;0.252;2023-04-24T02:09:41;4.13;;;1.95;;
14369;SDS011;7268;50.792;0.252;2023-04-24T02:12:09;1.48;;;1.38;;
14369;SDS011;7268;50.792;0.252;2023-04-24T02:14:36;5.20;;;2.65;;
14369;SDS011;7268;50.792;0.252;2023-04-24T02:17:04;1.88;;;0.85;;
14369;SDS011;7268;50.792;0.252;2023-04-24T02:19:31;1.00;;;0.90;;
14369;SDS011;7268;50.792;0.252;2023-04-24T02:21:58;2.60;;;1.77;;
14369;SDS011;7268;50.792;0.252;2023-04-24T02:24:25;1.75;;;1.52;;
14369;SDS011;7268;50.792;0.252;2023-04-24T02:26:52;1.77;;;1.25;;
14369;SDS011;7268;50.792;0.252;2023-04-24T02:29:20;4.40;;;2.83;;
14369;SDS011;7268;50.792;0.252;2023-04-24T02:31:47;5.70;;;2.60;;
14369;SDS011;7268;50.792;0.252;2023-04-24T02:34:14;4.03;;;2.10;;
14369;SDS011;7268;50.792;0.252;2023-04-24T02:36:42;3.42;;;2.72;;
14369;SDS011;7268;50.792;0.252;2023-04-24T02:39:09;3.55;;;2.40;;
14369;SDS011;7268;50.792;0.252;2023-04-24T02:41:36;2.28;;;2.08;;
14369;SDS011;7268;50.792;0.252;2023-04-24T02:44:04;1.80;;;1.15;;
14369;SDS011;7268;50.792;0.252;2023-04-24T02:46:31;3.55;;;2.05;;
14369;SDS011;7268;50.792;0.252;2023-04-24T02:48:58;4.18;;;2.63;;
14369;SDS011;7268;50.792;0.252;2023-04-24T02:51:25;1.05;;;1.00;;
14369;SDS011;7268;50.792;0.252;2023-04-24T02:53:53;2.40;;;1.33;;
14369;SDS011;7268;50.792;0.252;2023-04-24T02:56:20;3.55;;;2.08;;
14369;SDS011;7268;50.792;0.252;2023-04-24T02:58:47;3.92;;;2.53;;
14369;SDS011;7268;50.792;0.252;2023-04-24T03:01:14;3.28;;;1.65;;
14369;SDS011;7268;50.792;0.252;2023-04-24T03:03:42;2.60;;;1.63;;
14369;SDS011;7268;50.792;0.252;2023-04-24T03:06:09;1.27;;;1.10;;
14369;SDS011;7268;50.792;0.252;2023-04-24T03:08:36;0.85;;;0.73;;
14369;SDS011;7268;50.792;0.252;2023-04-24T03:11:04;5.10;;;2.30;;
14369;SDS011;7268;50.792;0.252;2023-04-24T03:13:31;4.30;;;2.47;;
14369;SDS011;7268;50.792;0.252;2023-04-24T03:15:58;3.28;;;1.88;;
14369;SDS011;7268;50.792;0.252;2023-04-24T03:18:25;1.95;;;1.63;;
14369;SDS011;7268;50.792;0.252;2023-04-24T03:20:52;0.70;;;0.68;;
14369;SDS011;7268;50.792;0.252;2023-04-24T03:23:20;2.83;;;1.80;;
14369;SDS011;7268;50.792;0.252;2023-04-24T03:25:47;1.90;;;1.48;;
14369;SDS011;7268;50.792;0.252;2023-04-24T03:28:14;2.47;;;1.23;;
14369;SDS011;7268;50.792;0.252;2023-04-24T03:30:42;3.33;;;1.42;;
14369;SDS011;7268;50.792;0.252;2023-04-24T03:33:09;6.13;;;3.72;;
14369;SDS011;7268;50.792;0.252;2023-04-24T03:35:36;5.50;;;2.13;;
14369;SDS011;7268;50.792;0.252;2023-04-24T03:38:03;1.65;;;1.55;;
14369;SDS011;7268;50.792;0.252;2023-04-24T03:40:30;2.17;;;1.17;;
14369;SDS011;7268;50.792;0.252;2023-04-24T03:42:59;3.63;;;2.28;;
14369;SDS011;7268;50.792;0.252;2023-04-24T03:45:26;1.38;;;1.10;;
14369;SDS011;7268;50.792;0.252;2023-04-24T03:47:54;2.72;;;0.70;;
14369;SDS011;7268;50.792;0.252;2023-04-24T03:50:21;4.28;;;2.03;;
14369;SDS011;7268;50.792;0.252;2023-04-24T03:52:48;2.67;;;1.92;;
14369;SDS011;7268;50.792;0.252;2023-04-24T03:55:16;1.08;;;1.00;;
14369;SDS011;7268;50.792;0.252;2023-04-24T03:57:43;1.83;;;1.63;;
14369;SDS011;7268;50.792;0.252;2023-04-24T04:00:10;2.65;;;1.55;;
14369;SDS011;7268;50.792;0.252;2023-04-24T04:02:38;2.35;;;1.58;;
14369;SDS011;7268;50.792;0.252;2023-04-24T04:05:05;1.48;;;1.13;;
14369;SDS011;7268;50.792;0.252;2023-04-24T04:07:32;2.58;;;2.10;;
14369;SDS011;7268;50.792;0.252;2023-04-24T04:10:00;6.20;;;2.42;;
14369;SDS011;7268;50.792;0.252;2023-04-24T04:12:27;0.68;;;0.68;;
14369;SDS011;7268;50.792;0.252;2023-04-24T04:14:54;7.18;;;3.17;;
14369;SDS011;7268;50.792;0.252;2023-04-24T04:17:21;3.22;;;2.13;;
14369;SDS011;7268;50.792;0.252;2023-04-24T04:19:49;3.30;;;2.17;;
14369;SDS011;7268;50.792;0.252;2023-04-24T04:22:16;5.07;;;1.35;;
14369;SDS011;7268;50.792;0.252;2023-04-24T04:24:44;2.53;;;2.00;;
14369;SDS011;7268;50.792;0.252;2023-04-24T04:27:12;1.80;;;1.00;;
14369;SDS011;7268;50.792;0.252;2023-04-24T04:29:39;6.22;;;2.47;;
14369;SDS011;7268;50.792;0.252;2023-04-24T04:32:07;5.97;;;1.33;;
14369;SDS011;7268;50.792;0.252;2023-04-24T04:34:34;0.95;;;0.52;;
14369;SDS011;7268;50.792;0.252;2023-04-24T04:37:03;1.88;;;1.25;;
14369;SDS011;7268;50.792;0.252;2023-04-24T04:39:32;1.30;;;1.20;;
14369;SDS011;7268;50.792;0.252;2023-04-24T04:41:59;3.05;;;2.03;;
14369;SDS011;7268;50.792;0.252;2023-04-24T04:44:27;1.48;;;1.20;;
14369;SDS011;7268;50.792;0.252;2023-04-24T04:46:56;4.75;;;2.60;;
14369;SDS011;7268;50.792;0.252;2023-04-24T04:49:23;1.92;;;1.55;;
14369;SDS011;7268;50.792;0.252;2023-04-24T04:51:51;3.55;;;1.90;;
14369;SDS011;7268;50.792;0.252;2023-04-24T04:54:18;1.17;;;1.08;;
14369;SDS011;7268;50.792;0.252;2023-04-24T04:56:45;6.93;;;3.15;;
14369;SDS011;7268;50.792;0.252;2023-04-24T04:59:12;4.40;;;2.38;;
14369;SDS011;7268;50.792;0.252;2023-04-24T05:01:40;1.20;;;1.15;;
14369;SDS011;7268;50.792;0.252;2023-04-24T05:04:07;2.47;;;1.38;;
14369;SDS011;7268;50.792;0.252;2023-04-24T05:06:35;1.08;;;0.98;;
14369;SDS011;7268;50.792;0.252;2023-04-24T05:09:02;3.85;;;1.45;;
14369;SDS011;7268;50.792;0.252;2023-04-24T05:11:29;2.15;;;1.95;;
14369;SDS011;7268;50.792;0.252;2023-04-24T05:13:57;4.78;;;1.50;;
14369;SDS011;7268;50.792;0.252;2023-04-24T05:16:24;4.53;;;2.30;;
14369;SDS011;7268;50.792;0.252;2023-04-24T05:18:52;4.63;;;2.25;;
14369;SDS011;7268;50.792;0.252;2023-04-24T05:21:19;3.72;;;2.65;;
14369;SDS011;7268;50.792;0.252;2023-04-24T05:23:46;2.45;;;2.25;;
14369;SDS011;7268;50.792;0.252;2023-04-24T05:26:14;5.63;;;1.80;;
14369;SDS011;7268;50.792;0.252;2023-04-24T05:28:41;2.38;;;2.10;;
14369;SDS011;7268;50.792;0.252;2023-04-24T05:31:08;3.30;;;1.58;;
14369;SDS011;7268;50.792;0.252;2023-04-24T05:33:36;2.45;;;1.70;;
14369;SDS011;7268;50.792;0.252;2023-04-24T05:36:03;0.55;;;0.55;;
14369;SDS011;7268;50.792;0.252;2023-04-24T05:38:31;6.63;;;2.50;;
14369;SDS011;7268;50.792;0.252;2023-04-24T05:40:59;5.05;;;2.10;;
14369;SDS011;7268;50.792;0.252;2023-04-24T05:43:26;5.70;;;2.95;;
14369;SDS011;7268;50.792;0.252;2023-04-24T05:45:53;6.93;;;2.17;;
14369;SDS011;7268;50.792;0.252;2023-04-24T05:48:21;3.55;;;2.30;;
14369;SDS011;7268;50.792;0.252;2023-04-24T05:50:49;5.78;;;2.78;;
14369;SDS011;7268;50.792;0.252;2023-04-24T05:53:16;8.73;;;2.03;;
14369;SDS011;7268;50.792;0.252;2023-04-24T05:55:44;4.50;;;2.70;;
14369;SDS011;7268;50.792;0.252;2023-04-24T05:58:11;3.70;;;2.22;;
14369;SDS011;7268;50.792;0.252;2023-04-24T06:00:39;6.95;;;2.88;;
14369;SDS011;7268;50.792;0.252;2023-04-24T06:03:08;11.77;;;3.00;;
14369;SDS011;7268;50.792;0.252;2023-04-24T06:05:36;4.57;;;2.20;;
14369;SDS011;7268;50.792;0.252;2023-04-24T06:08:03;7.43;;;2.90;;
14369;SDS011;7268;50.792;0.252;2023-04-24T06:10:30;4.88;;;2.33;;
14369;SDS011;7268;50.792;0.252;2023-04-24T06:12:58;1.35;;;0.88;;
14369;SDS011;7268;50.792;0.252;2023-04-24T06:15:29;3.97;;;1.60;;
14369;SDS011;7268;50.792;0.252;2023-04-24T06:17:57;3.25;;;1.35;;
14369;SDS011;7268;50.792;0.252;2023-04-24T06:20:25;2.72;;;1.15;;
14369;SDS011;7268;50.792;0.252;2023-04-24T06:22:52;2.28;;;1.05;;
14369;SDS011;7268;50.792;0.252;2023-04-24T06:25:20;1.90;;;1.00;;
14369;SDS011;7268;50.792;0.252;2023-04-24T06:27:47;1.60;;;0.88;;
14369;SDS011;7268;50.792;0.252;2023-04-24T06:30:14;1.98;;;1.30;;
14369;SDS011;7268;50.792;0.252;2023-04-24T06:32:41;3.33;;;1.10;;
14369;SDS011;7268;50.792;0.252;2023-04-24T06:35:09;2.13;;;0.90;;
14369;SDS011;7268;50.792;0.252;2023-04-24T06:37:41;4.18;;;1.30;;
14369;SDS011;7268;50.792;0.252;2023-04-24T06:40:09;1.60;;;1.20;;
14369;SDS011;7268;50.792;0.252;2023-04-24T06:42:36;3.38;;;1.60;;
14369;SDS011;7268;50.792;0.252;2023-04-24T06:45:03;5.65;;;1.60;;
14369;SDS011;7268;50.792;0.252;2023-04-24T06:47:31;3.65;;;1.38;;
14369;SDS011;7268;50.792;0.252;2023-04-24T06:49:58;2.25;;;1.30;;
14369;SDS011;7268;50.792;0.252;2023-04-24T06:52:26;4.50;;;1.25;;
14369;SDS011;7268;50.792;0.252;2023-04-24T06:54:59;1.88;;;1.30;;
14369;SDS011;7268;50.792;0.252;2023-04-24T06:57:26;3.25;;;1.55;;
14369;SDS011;7268;50.792;0.252;2023-04-24T06:59:54;2.42;;;1.15;;
14369;SDS011;7268;50.792;0.252;2023-04-24T07:02:21;2.30;;;1.35;;
14369;SDS011;7268;50.792;0.252;2023-04-24T07:04:49;3.53;;;1.20;;
14369;SDS011;7268;50.792;0.252;2023-04-24T07:07:16;2.22;;;1.20;;
14369;SDS011;7268;50.792;0.252;2023-04-24T07:09:43;2.80;;;1.70;;
14369;SDS011;7268;50.792;0.252;2023-04-24T07:12:11;3.42;;;1.35;;
14369;SDS011;7268;50.792;0.252;2023-04-24T07:14:39;2.03;;;1.02;;
14369;SDS011;7268;50.792;0.252;2023-04-24T07:17:07;2.30;;;1.33;;
14369;SDS011;7268;50.792;0.252;2023-04-24T07:19:34;3.63;;;1.63;;
14369;SDS011;7268;50.792;0.252;2023-04-24T07:22:01;3.88;;;1.40;;
14369;SDS011;7268;50.792;0.252;2023-04-24T07:24:30;2.95;;;1.65;;
14369;SDS011;7268;50.792;0.252;2023-04-24T07:26:59;4.30;;;1.35;;
14369;SDS011;7268;50.792;0.252;2023-04-24T07:29:27;2.30;;;1.10;;
14369;SDS011;7268;50.792;0.252;2023-04-24T07:31:54;1.48;;;1.10;;
14369;SDS011;7268;50.792;0.252;2023-04-24T07:34:22;2.65;;;1.10;;
14369;SDS011;7268;50.792;0.252;2023-04-24T07:36:50;3.28;;;1.25;;
14369;SDS011;7268;50.792;0.252;2023-04-24T07:39:17;2.25;;;1.05;;
14369;SDS011;7268;50.792;0.252;2023-04-24T07:41:45;3.50;;;1.58;;
14369;SDS011;7268;50.792;0.252;2023-04-24T07:44:12;5.25;;;1.42;;
14369;SDS011;7268;50.792;0.252;2023-04-24T07:46:40;3.13;;;1.60;;
14369;SDS011;7268;50.792;0.252;2023-04-24T07:49:07;3.55;;;1.40;;
14369;SDS011;7268;50.792;0.252;2023-04-24T07:51:39;3.92;;;1.30;;
14369;SDS011;7268;50.792;0.252;2023-04-24T07:54:08;3.28;;;1.75;;
14369;SDS011;7268;50.792;0.252;2023-04-24T07:56:35;3.00;;;1.40;;
14369;SDS011;7268;50.792;0.252;2023-04-24T07:59:05;2.58;;;1.20;;
14369;SDS011;7268;50.792;0.252;2023-04-24T08:01:32;2.92;;;1.70;;
14369;SDS011;7268;50.792;0.252;2023-04-24T08:04:00;3.75;;;1.65;;
14369;SDS011;7268;50.792;0.252;2023-04-24T08:06:27;2.30;;;1.35;;
14369;SDS011;7268;50.792;0.252;2023-04-24T08:08:57;3.05;;;1.30;;
14369;SDS011;7268;50.792;0.252;2023-04-24T08:11:25;2.72;;;1.20;;
14369;SDS011;7268;50.792;0.252;2023-04-24T08:13:52;3.17;;;1.38;;
14369;SDS011;7268;50.792;0.252;2023-04-24T08:16:21;2.70;;;1.38;;
14369;SDS011;7268;50.792;0.252;2023-04-24T08:18:50;7.22;;;2.00;;
14369;SDS011;7268;50.792;0.252;2023-04-24T08:21:17;5.57;;;1.85;;
14369;SDS011;7268;50.792;0.252;2023-04-24T08:23:45;2.15;;;1.25;;
14369;SDS011;7268;50.792;0.252;2023-04-24T08:26:13;1.95;;;1.00;;
14369;SDS011;7268;50.792;0.252;2023-04-24T08:28:40;2.63;;;1.40;;
14369;SDS011;7268;50.792;0.252;2023-04-24T08:31:07;3.35;;;1.33;;
14369;SDS011;7268;50.792;0.252;2023-04-24T08:33:35;4.47;;;1.80;;
14369;SDS011;7268;50.792;0.252;2023-04-24T08:36:02;2.13;;;1.50;;
14369;SDS011;7268;50.792;0.252;2023-04-24T08:38:30;2.72;;;1.70;;
14369;SDS011;7268;50.792;0.252;2023-04-24T08:40:58;2.75;;;1.20;;
14369;SDS011;7268;50.792;0.252;2023-04-24T08:43:26;3.03;;;1.45;;
14369;SDS011;7268;50.792;0.252;2023-04-24T08:45:55;2.67;;;1.38;;
14369;SDS011;7268;50.792;0.252;2023-04-24T08:53:57;4.05;;;1.17;;
14369;SDS011;7268;50.792;0.252;2023-04-24T08:56:25;3.72;;;1.08;;
14369;SDS011;7268;50.792;0.252;2023-04-24T08:58:53;1.90;;;1.17;;
14369;SDS011;7268;50.792;0.252;2023-04-24T09:01:21;3.30;;;1.50;;
14369;SDS011;7268;50.792;0.252;2023-04-24T09:03:50;5.00;;;1.67;;
14369;SDS011;7268;50.792;0.252;2023-04-24T09:06:18;5.00;;;1.55;;
14369;SDS011;7268;50.792;0.252;2023-04-24T09:08:46;2.92;;;1.30;;
14369;SDS011;7268;50.792;0.252;2023-04-24T09:11:14;3.13;;;1.63;;
14369;SDS011;7268;50.792;0.252;2023-04-24T09:13:41;2.53;;;1.30;;
14369;SDS011;7268;50.792;0.252;2023-04-24T09:16:09;2.10;;;1.10;;
14369;SDS011;7268;50.792;0.252;2023-04-24T09:18:37;2.15;;;1.35;;
14369;SDS011;7268;50.792;0.252;2023-04-24T09:21:06;2.67;;;1.20;;
14369;SDS011;7268;50.792;0.252;2023-04-24T09:23:34;2.05;;;0.98;;
14369;SDS011;7268;50.792;0.252;2023-04-24T09:26:03;2.90;;;1.60;;
14369;SDS011;7268;50.792;0.252;2023-04-24T09:28:37;4.03;;;1.60;;
14369;SDS011;7268;50.792;0.252;2023-04-24T09:33:32;1.25;;;0.75;;
14369;SDS011;7268;50.792;0.252;2023-04-24T09:36:02;3.45;;;1.45;;
14369;SDS011;7268;50.792;0.252;2023-04-24T09:38:33;2.72;;;1.33;;
14369;SDS011;7268;50.792;0.252;2023-04-24T09:41:01;3.10;;;1.90;;
14369;SDS011;7268;50.792;0.252;2023-04-24T09:43:29;5.75;;;1.70;;
14369;SDS011;7268;50.792;0.252;2023-04-24T09:45:57;4.38;;;1.30;;
14369;SDS011;7268;50.792;0.252;2023-04-24T09:48:35;5.60;;;2.15;;
14369;SDS011;7268;50.792;0.252;2023-04-24T09:51:03;2.13;;;1.30;;
14369;SDS011;7268;50.792;0.252;2023-04-24T09:53:30;2.20;;;1.45;;
14369;SDS011;7268;50.792;0.252;2023-04-24T09:56:07;5.18;;;1.52;;
14369;SDS011;7268;50.792;0.252;2023-04-24T09:58:36;7.88;;;1.25;;
14369;SDS011;7268;50.792;0.252;2023-04-24T10:01:03;3.38;;;1.63;;
14369;SDS011;7268;50.792;0.252;2023-04-24T10:03:31;2.75;;;1.55;;
14369;SDS011;7268;50.792;0.252;2023-04-24T10:05:59;4.65;;;1.20;;
14369;SDS011;7268;50.792;0.252;2023-04-24T10:08:33;4.88;;;1.00;;
14369;SDS011;7268;50.792;0.252;2023-04-24T10:11:00;4.78;;;1.30;;
14369;SDS011;7268;50.792;0.252;2023-04-24T10:13:28;3.38;;;1.25;;
14369;SDS011;7268;50.792;0.252;2023-04-24T10:15:56;1.67;;;1.25;;
14369;SDS011;7268;50.792;0.252;2023-04-24T10:18:23;1.58;;;1.15;;
14369;SDS011;7268;50.792;0.252;2023-04-24T10:20:51;3.35;;;1.65;;
14369;SDS011;7268;50.792;0.252;2023-04-24T10:23:21;1.33;;;0.90;;
14369;SDS011;7268;50.792;0.252;2023-04-24T10:25:49;2.70;;;1.05;;
14369;SDS011;7268;50.792;0.252;2023-04-24T10:28:18;1.75;;;0.80;;
14369;SDS011;7268;50.792;0.252;2023-04-24T10:30:45;3.08;;;1.10;;
14369;SDS011;7268;50.792;0.252;2023-04-24T10:33:13;1.90;;;0.98;;
14369;SDS011;7268;50.792;0.252;2023-04-24T10:35:42;2.60;;;1.35;;
14369;SDS011;7268;50.792;0.252;2023-04-24T10:38:13;2.00;;;1.05;;
14369;SDS011;7268;50.792;0.252;2023-04-24T10:40:41;3.28;;;1.50;;
14369;SDS011;7268;50.792;0.252;2023-04-24T10:43:10;2.17;;;1.27;;
14369;SDS011;7268;50.792;0.252;2023-04-24T10:45:38;1.63;;;0.73;;
14369;SDS011;7268;50.792;0.252;2023-04-24T10:48:06;2.67;;;1.35;;
14369;SDS011;7268;50.792;0.252;2023-04-24T10:50:43;3.95;;;1.35;;
14369;SDS011;7268;50.792;0.252;2023-04-24T10:53:15;2.55;;;1.00;;
14369;SDS011;7268;50.792;0.252;2023-04-24T10:55:44;2.65;;;1.10;;
14369;SDS011;7268;50.792;0.252;2023-04-24T10:58:12;2.70;;;1.02;;
14369;SDS011;7268;50.792;0.252;2023-04-24T11:00:41;2.03;;;1.20;;
14369;SDS011;7268;50.792;0.252;2023-04-24T11:08:38;2.95;;;1.10;;
14369;SDS011;7268;50.792;0.252;2023-04-24T11:11:10;3.10;;;0.88;;
14369;SDS011;7268;50.792;0.252;2023-04-24T11:18:59;2.03;;;0.85;;
14369;SDS011;7268;50.792;0.252;2023-04-24T11:21:47;2.95;;;1.00;;
14369;SDS011;7268;50.792;0.252;2023-04-24T11:32:19;1.50;;;0.80;;
14369;SDS011;7268;50.792;0.252;2023-04-24T11:34:54;3.42;;;0.88;;
14369;SDS011;7268;50.792;0.252;2023-04-24T11:40:03;2.10;;;0.82;;
14369;SDS011;7268;50.792;0.252;2023-04-24T11:42:34;1.67;;;0.82;;
14369;SDS011;7268;50.792;0.252;2023-04-24T11:45:02;0.55;;;0.55;;
14369;SDS011;7268;50.792;0.252;2023-04-24T11:47:34;0.98;;;0.77;;
14369;SDS011;7268;50.792;0.252;2023-04-24T11:50:01;2.58;;;0.88;;
14369;SDS011;7268;50.792;0.252;2023-04-24T11:52:30;4.97;;;0.70;;
14369;SDS011;7268;50.792;0.252;2023-04-24T11:54:57;5.32;;;1.02;;
14369;SDS011;7268;50.792;0.252;2023-04-24T11:57:25;1.15;;;0.55;;
14369;SDS011;7268;50.792;0.252;2023-04-24T11:59:55;1.10;;;0.70;;
14369;SDS011;7268;50.792;0.252;2023-04-24T12:02:26;4.20;;;0.68;;
14369;SDS011;7268;50.792;0.252;2023-04-24T12:04:53;0.50;;;0.35;;
14369;SDS011;7268;50.792;0.252;2023-04-24T12:07:22;1.77;;;0.65;;
14369;SDS011;7268;50.792;0.252;2023-04-24T12:09:57;1.05;;;0.60;;
14369;SDS011;7268;50.792;0.252;2023-04-24T12:12:26;1.63;;;1.10;;
14369;SDS011;7268;50.792;0.252;2023-04-24T12:14:54;1.05;;;0.75;;
14369;SDS011;7268;50.792;0.252;2023-04-24T12:17:29;0.90;;;0.65;;
14369;SDS011;7268;50.792;0.252;2023-04-24T12:20:01;3.70;;;0.82;;
14369;SDS011;7268;50.792;0.252;2023-04-24T12:22:49;0.57;;;0.55;;
14369;SDS011;7268;50.792;0.252;2023-04-24T12:25:18;3.45;;;1.50;;
14369;SDS011;7268;50.792;0.252;2023-04-24T12:27:45;4.82;;;1.60;;
14369;SDS011;7268;50.792;0.252;2023-04-24T12:30:14;0.80;;;0.35;;
14369;SDS011;7268;50.792;0.252;2023-04-24T12:32:45;0.80;;;0.50;;
14369;SDS011;7268;50.792;0.252;2023-04-24T12:35:18;1.25;;;0.73;;
14369;SDS011;7268;50.792;0.252;2023-04-24T12:37:46;0.77;;;0.60;;
14369;SDS011;7268;50.792;0.252;2023-04-24T12:40:14;0.50;;;0.30;;
14369;SDS011;7268;50.792;0.252;2023-04-24T12:42:48;0.80;;;0.60;;
14369;SDS011;7268;50.792;0.252;2023-04-24T12:45:16;1.27;;;0.63;;
14369;SDS011;7268;50.792;0.252;2023-04-24T12:47:44;0.70;;;0.43;;
14369;SDS011;7268;50.792;0.252;2023-04-24T12:50:12;2.28;;;1.35;;
14369;SDS011;7268;50.792;0.252;2023-04-24T12:52:40;0.80;;;0.40;;
14369;SDS011;7268;50.792;0.252;2023-04-24T12:55:08;1.00;;;0.50;;
14369;SDS011;7268;50.792;0.252;2023-04-24T12:57:36;1.33;;;0.57;;
14369;SDS011;7268;50.792;0.252;2023-04-24T13:00:04;2.25;;;0.68;;
14369;SDS011;7268;50.792;0.252;2023-04-24T13:02:32;4.50;;;0.40;;
14369;SDS011;7268;50.792;0.252;2023-04-24T13:05:00;1.15;;;0.65;;
14369;SDS011;7268;50.792;0.252;2023-04-24T13:07:29;4.38;;;0.93;;
14369;SDS011;7268;50.792;0.252;2023-04-24T13:09:57;3.00;;;0.90;;
14369;SDS011;7268;50.792;0.252;2023-04-24T13:12:24;2.17;;;0.60;;
14369;SDS011;7268;50.792;0.252;2023-04-24T13:14:52;0.80;;;0.40;;
14369;SDS011;7268;50.792;0.252;2023-04-24T13:17:20;1.67;;;0.57;;
14369;SDS011;7268;50.792;0.252;2023-04-24T13:19:49;1.42;;;0.80;;
14369;SDS011;7268;50.792;0.252;2023-04-24T13:22:17;1.90;;;0.32;;
14369;SDS011;7268;50.792;0.252;2023-04-24T13:24:45;0.82;;;0.38;;
14369;SDS011;7268;50.792;0.252;2023-04-24T13:27:15;0.50;;;0.47;;
14369;SDS011;7268;50.792;0.252;2023-04-24T13:29:42;1.13;;;0.50;;
14369;SDS011;7268;50.792;0.252;2023-04-24T13:32:10;0.98;;;0.50;;
14369;SDS011;7268;50.792;0.252;2023-04-24T13:34:37;0.50;;;0.43;;
14369;SDS011;7268;50.792;0.252;2023-04-24T13:37:05;0.95;;;0.47;;
14369;SDS011;7268;50.792;0.252;2023-04-24T13:39:32;0.80;;;0.45;;
14369;SDS011;7268;50.792;0.252;2023-04-24T13:41:59;2.17;;;0.63;;
14369;SDS011;7268;50.792;0.252;2023-04-24T13:44:30;0.65;;;0.43;;
14369;SDS011;7268;50.792;0.252;2023-04-24T13:46:57;1.55;;;0.57;;
14369;SDS011;7268;50.792;0.252;2023-04-24T13:49:25;11.02;;;1.00;;
14369;SDS011;7268;50.792;0.252;2023-04-24T13:51:53;1.50;;;0.82;;
14369;SDS011;7268;50.792;0.252;2023-04-24T13:54:21;0.85;;;0.50;;
14369;SDS011;7268;50.792;0.252;2023-04-24T13:56:50;0.98;;;0.50;;
14369;SDS011;7268;50.792;0.252;2023-04-24T13:59:18;0.90;;;0.60;;
14369;SDS011;7268;50.792;0.252;2023-04-24T14:01:46;0.52;;;0.30;;
14369;SDS011;7268;50.792;0.252;2023-04-24T14:04:14;0.40;;;0.40;;
14369;SDS011;7268;50.792;0.252;2023-04-24T14:06:42;0.47;;;0.38;;
14369;SDS011;7268;50.792;0.252;2023-04-24T14:09:10;3.47;;;0.30;;
14369;SDS011;7268;50.792;0.252;2023-04-24T14:11:38;0.40;;;0.38;;
14369;SDS011;7268;50.792;0.252;2023-04-24T14:14:06;0.40;;;0.30;;
14369;SDS011;7268;50.792;0.252;2023-04-24T14:16:34;0.68;;;0.38;;
14369;SDS011;7268;50.792;0.252;2023-04-24T14:19:01;1.48;;;0.88;;
14369;SDS011;7268;50.792;0.252;2023-04-24T14:21:28;0.45;;;0.40;;
14369;SDS011;7268;50.792;0.252;2023-04-24T14:23:56;0.73;;;0.40;;
14369;SDS011;7268;50.792;0.252;2023-04-24T14:26:23;0.30;;;0.30;;
14369;SDS011;7268;50.792;0.252;2023-04-24T14:28:51;0.57;;;0.40;;
14369;SDS011;7268;50.792;0.252;2023-04-24T14:31:29;4.88;;;0.60;;
14369;SDS011;7268;50.792;0.252;2023-04-24T14:33:56;2.20;;;0.70;;
14369;SDS011;7268;50.792;0.252;2023-04-24T14:36:24;0.68;;;0.50;;
14369;SDS011;7268;50.792;0.252;2023-04-24T14:38:52;0.52;;;0.38;;
14369;SDS011;7268;50.792;0.252;2023-04-24T14:41:19;0.32;;;0.25;;
14369;SDS011;7268;50.792;0.252;2023-04-24T14:43:46;0.65;;;0.47;;
14369;SDS011;7268;50.792;0.252;2023-04-24T14:46:14;0.52;;;0.43;;
14369;SDS011;7268;50.792;0.252;2023-04-24T14:48:41;2.28;;;0.50;;
14369;SDS011;7268;50.792;0.252;2023-04-24T14:51:09;0.45;;;0.40;;
14369;SDS011;7268;50.792;0.252;2023-04-24T14:53:36;3.35;;;0.40;;
14369;SDS011;7268;50.792;0.252;2023-04-24T14:56:03;0.43;;;0.28;;
14369;SDS011;7268;50.792;0.252;2023-04-24T14:58:31;7.55;;;0.55;;
14369;SDS011;7268;50.792;0.252;2023-04-24T15:00:59;0.60;;;0.47;;
14369;SDS011;7268;50.792;0.252;2023-04-24T15:03:26;0.52;;;0.20;;
14369;SDS011;7268;50.792;0.252;2023-04-24T15:05:54;1.65;;;0.40;;
14369;SDS011;7268;50.792;0.252;2023-04-24T15:08:21;0.73;;;0.57;;
14369;SDS011;7268;50.792;0.252;2023-04-24T15:10:48;0.70;;;0.70;;
14369;SDS011;7268;50.792;0.252;2023-04-24T15:13:16;2.83;;;0.82;;
14369;SDS011;7268;50.792;0.252;2023-04-24T15:15:45;0.40;;;0.22;;
14369;SDS011;7268;50.792;0.252;2023-04-24T15:18:13;0.20;;;0.10;;
14369;SDS011;7268;50.792;0.252;2023-04-24T15:20:41;0.50;;;0.40;;
14369;SDS011;7268;50.792;0.252;2023-04-24T15:23:08;0.38;;;0.32;;
14369;SDS011;7268;50.792;0.252;2023-04-24T15:25:36;2.65;;;0.15;;
14369;SDS011;7268;50.792;0.252;2023-04-24T15:28:04;2.65;;;0.35;;
14369;SDS011;7268;50.792;0.252;2023-04-24T15:30:32;0.40;;;0.10;;
14369;SDS011;7268;50.792;0.252;2023-04-24T15:32:59;0.25;;;0.13;;
14369;SDS011;7268;50.792;0.252;2023-04-24T15:35:28;0.20;;;0.10;;